Time;durP1;ratioP1;P1;durP2;ratioP2;P2;SDS_P1;SDS_P2;PMS_P1;PMS_P2;Temp;Humidity;BMP_temperature;BMP_pressure;BME280_temperature;BME280_humidity;BME280_pressure;Samples;Min_cycle;Max_cycle;Signal;HPM_P1;HPM_P2
2022/01/30 00:02:54;;;;;;;17.90;3.70;;;;;6.40;102376.00;;;;10463889;28;20193;-78
2022/01/30 00:07:57;;;;;;;15.93;3.90;;;;;6.20;102385.00;;;;10449937;28;20224;-77
2022/01/30 00:13:01;;;;;;;15.97;3.90;;;;;6.20;102384.00;;;;10491873;28;20190;-78
2022/01/30 00:23:24;;;;;;;10.80;3.37;;;;;6.00;102360.00;;;;10481750;28;20177;-78
2022/01/30 00:28:27;;;;;;;18.00;4.30;;;;;6.10;102376.00;;;;10486194;28;20198;-78
2022/01/30 00:33:29;;;;;;;17.93;4.40;;;;;6.00;102381.00;;;;10428026;28;20285;-78
2022/01/30 00:38:33;;;;;;;18.77;4.23;;;;;5.80;102397.00;;;;10484780;28;20213;-77
2022/01/30 00:43:35;;;;;;;20.60;5.13;;;;;5.60;102398.00;;;;10472104;28;20196;-78
2022/01/30 00:48:37;;;;;;;20.50;4.03;;;;;5.50;102395.00;;;;10476114;28;20189;-78
2022/01/30 00:53:39;;;;;;;14.77;4.67;;;;;5.30;102391.00;;;;10491011;28;20193;-78
2022/01/30 00:58:42;;;;;;;17.17;4.20;;;;;5.20;102394.00;;;;10516896;28;20217;-78
2022/01/30 01:03:45;;;;;;;17.60;5.17;;;;;5.20;102406.00;;;;10485141;28;20269;-78
2022/01/30 01:08:50;;;;;;;19.10;4.37;;;;;5.10;102411.00;;;;10475592;28;20222;-78
2022/01/30 01:24:17;;;;;;;20.53;4.40;;;;;5.10;102406.00;;;;10458227;28;20205;-78
2022/01/30 01:29:19;;;;;;;20.10;4.50;;;;;5.10;102417.00;;;;10492133;28;20185;-77
2022/01/30 01:34:33;;;;;;;19.33;4.50;;;;;5.10;102409.00;;;;10423549;28;20612;-78
2022/01/30 01:39:36;;;;;;;21.90;5.00;;;;;5.10;102409.00;;;;10474282;28;20295;-78
2022/01/30 01:44:45;;;;;;;17.13;3.90;;;;;5.10;102412.00;;;;10531900;28;20203;-77
2022/01/30 01:49:50;;;;;;;17.17;3.97;;;;;5.00;102416.00;;;;10531946;28;20189;-78
2022/01/30 01:54:57;;;;;;;21.60;5.27;;;;;4.90;102433.00;;;;10499008;28;20195;-77
2022/01/30 02:00:00;;;;;;;20.83;4.10;;;;;4.90;102440.00;;;;10531597;28;20272;-78
2022/01/30 02:05:16;;;;;;;17.07;4.60;;;;;4.80;102442.00;;;;10484720;28;20592;-78
2022/01/30 02:10:35;;;;;;;25.70;4.53;;;;;4.70;102444.00;;;;10446862;28;20220;-78
2022/01/30 02:26:26;;;;;;;18.57;4.70;;;;;4.60;102453.00;;;;10504685;28;20223;-78
2022/01/30 02:31:28;;;;;;;21.03;4.70;;;;;4.50;102442.00;;;;10487926;28;20194;-79
2022/01/30 02:36:31;;;;;;;16.77;3.70;;;;;4.50;102458.00;;;;10447246;28;20799;-79
2022/01/30 02:41:33;;;;;;;21.50;4.30;;;;;4.40;102455.00;;;;10476529;28;20796;-79
2022/01/30 02:46:41;;;;;;;18.20;4.20;;;;;4.30;102456.00;;;;10504210;28;20223;-78
2022/01/30 02:51:55;;;;;;;17.87;4.80;;;;;4.20;102450.00;;;;10517858;28;20225;-78
2022/01/30 02:56:58;;;;;;;23.93;5.30;;;;;4.10;102453.00;;;;10479118;28;20189;-79
2022/01/30 03:02:01;;;;;;;19.47;4.33;;;;;4.00;102459.00;;;;10479035;28;20209;-79
2022/01/30 03:07:06;;;;;;;20.53;5.47;;;;;4.00;102449.00;;;;10480296;28;20596;-78
2022/01/30 03:12:11;;;;;;;18.07;4.60;;;;;3.90;102462.00;;;;10470060;28;20198;-78
2022/01/30 03:17:14;;;;;;;21.73;4.10;;;;;3.90;102456.00;;;;10457209;28;20207;-79
2022/01/30 03:22:16;;;;;;;15.23;3.57;;;;;4.00;102456.00;;;;10546067;28;20195;-79
2022/01/30 03:27:18;;;;;;;22.47;4.40;;;;;4.00;102455.00;;;;10474754;28;20319;-78
2022/01/30 03:32:29;;;;;;;20.97;4.07;;;;;3.90;102447.00;;;;10439418;28;20201;-79
2022/01/30 03:37:31;;;;;;;21.80;4.63;;;;;3.80;102450.00;;;;10452686;28;20193;-78
2022/01/30 03:42:33;;;;;;;21.23;4.47;;;;;3.80;102461.00;;;;10484264;28;20198;-78
2022/01/30 03:47:35;;;;;;;16.10;3.80;;;;;3.80;102455.00;;;;10461729;28;20205;-78
2022/01/30 03:52:37;;;;;;;23.57;5.23;;;;;4.00;102453.00;;;;10455080;28;20319;-78
2022/01/30 03:57:39;;;;;;;17.43;4.10;;;;;4.00;102464.00;;;;10469087;28;20190;-78
2022/01/30 04:02:42;;;;;;;21.93;4.70;;;;;4.00;102470.00;;;;10467964;28;20248;-77
2022/01/30 04:07:47;;;;;;;18.53;3.90;;;;;3.80;102481.00;;;;10485252;28;20220;-78
2022/01/30 04:12:50;;;;;;;16.60;4.33;;;;;3.70;102461.00;;;;10500706;28;20198;-79
2022/01/30 04:18:20;;;;;;;17.80;4.57;;;;;3.50;102485.00;;;;10496992;28;20206;-79
2022/01/30 04:23:42;;;;;;;24.10;4.43;;;;;3.40;102492.00;;;;10494656;28;20247;-78
2022/01/30 04:29:11;;;;;;;15.13;3.77;;;;;3.40;102503.00;;;;10502713;28;20216;-79
2022/01/30 04:34:51;;;;;;;17.27;3.70;;;;;3.30;102513.00;;;;10508649;28;20193;-78
2022/01/30 04:57:24;;;;;;;20.03;4.67;;;;;3.80;102513.00;;;;10482733;28;20192;-78
2022/01/30 05:03:25;;;;;;;22.40;4.40;;;;;3.60;102521.00;;;;10479960;28;20203;-79
2022/01/30 05:08:27;;;;;;;24.80;4.90;;;;;3.40;102529.00;;;;10493322;28;20219;-79
2022/01/30 05:13:50;;;;;;;25.80;4.87;;;;;3.30;102543.00;;;;10479258;28;20287;-78
2022/01/30 05:19:12;;;;;;;25.27;4.10;;;;;3.20;102535.00;;;;10506699;28;20315;-79
2022/01/30 05:24:31;;;;;;;22.47;5.00;;;;;3.20;102518.00;;;;10453188;28;20198;-79
2022/01/30 05:30:08;;;;;;;23.27;4.43;;;;;3.40;102515.00;;;;10379637;28;20275;-79
2022/01/30 05:35:17;;;;;;;22.33;4.30;;;;;3.40;102529.00;;;;10495846;28;20197;-79
2022/01/30 05:40:37;;;;;;;17.63;4.90;;;;;3.30;102540.00;;;;10464574;28;20249;-78
2022/01/30 05:45:45;;;;;;;24.73;4.40;;;;;3.20;102551.00;;;;10497325;28;20194;-79
2022/01/30 05:51:10;;;;;;;13.23;4.03;;;;;3.10;102569.00;;;;10457948;28;20281;-79
2022/01/30 05:56:27;;;;;;;19.47;4.10;;;;;3.10;102553.00;;;;10460244;28;20187;-79
2022/01/30 06:01:35;;;;;;;22.20;4.77;;;;;3.30;102557.00;;;;10462098;28;20622;-79
2022/01/30 06:06:55;;;;;;;19.70;4.47;;;;;3.60;102548.00;;;;10477494;28;20204;-79
2022/01/30 06:11:57;;;;;;;24.00;4.60;;;;;3.80;102555.00;;;;10463045;28;20235;-79
2022/01/30 06:17:00;;;;;;;24.40;4.67;;;;;3.70;102569.00;;;;10479355;28;20635;-79
2022/01/30 06:22:28;;;;;;;18.00;4.33;;;;;3.80;102575.00;;;;10444407;28;20715;-79
2022/01/30 06:27:49;;;;;;;18.07;4.03;;;;;3.90;102582.00;;;;10449272;28;20568;-78
2022/01/30 06:33:11;;;;;;;23.27;4.77;;;;;4.00;102576.00;;;;10465304;28;20606;-79
2022/01/30 06:38:53;;;;;;;15.97;4.67;;;;;3.90;102561.00;;;;10326134;28;20333;-79
2022/01/30 06:44:30;;;;;;;18.10;4.50;;;;;3.70;102576.00;;;;10339664;28;20188;-78
2022/01/30 06:50:07;;;;;;;19.47;3.93;;;;;3.50;102566.00;;;;10500518;28;20185;-79
2022/01/30 06:55:28;;;;;;;23.33;4.97;;;;;3.40;102584.00;;;;10498304;28;20203;-78
2022/01/30 07:00:50;;;;;;;13.53;3.47;;;;;3.30;102579.00;;;;10479529;28;20225;-79
2022/01/30 07:06:10;;;;;;;15.63;3.77;;;;;3.30;102586.00;;;;10458701;28;20278;-78
2022/01/30 07:11:15;;;;;;;20.93;3.90;;;;;3.30;102582.00;;;;10412978;28;20634;-79
2022/01/30 07:16:17;;;;;;;21.30;4.77;;;;;3.30;102592.00;;;;10444976;28;20190;-79
2022/01/30 07:21:19;;;;;;;28.87;4.83;;;;;3.50;102603.00;;;;10444450;28;20260;-79
2022/01/30 07:26:21;;;;;;;20.80;5.27;;;;;3.60;102620.00;;;;10491854;28;20196;-79
2022/01/30 07:31:22;;;;;;;20.87;4.67;;;;;3.80;102625.00;;;;10489390;28;20206;-79
2022/01/30 07:36:26;;;;;;;15.60;4.10;;;;;3.90;102608.00;;;;10509951;28;20193;-79
2022/01/30 07:41:28;;;;;;;16.20;4.57;;;;;4.00;102609.00;;;;10474640;28;20259;-79
2022/01/30 07:46:30;;;;;;;16.57;4.17;;;;;4.00;102625.00;;;;10506632;28;20243;-78
2022/01/30 07:51:32;;;;;;;17.37;4.37;;;;;3.90;102622.00;;;;10467926;28;20212;-79
2022/01/30 07:56:34;;;;;;;14.37;4.20;;;;;3.90;102619.00;;;;10450038;28;20191;-78
2022/01/30 08:01:36;;;;;;;15.87;4.53;;;;;3.80;102628.00;;;;10466065;28;20267;-78
2022/01/30 08:06:38;;;;;;;24.37;5.67;;;;;3.70;102634.00;;;;10450952;28;20255;-79
2022/01/30 08:11:40;;;;;;;22.07;4.90;;;;;3.70;102625.00;;;;10445890;28;20218;-79
2022/01/30 08:16:43;;;;;;;23.77;4.43;;;;;3.90;102620.00;;;;10487962;28;20189;-79
2022/01/30 08:21:47;;;;;;;19.50;5.23;;;;;4.10;102614.00;;;;10471920;28;20762;-80
2022/01/30 08:26:49;;;;;;;18.10;4.13;;;;;4.40;102625.00;;;;10492433;28;20190;-80
2022/01/30 08:31:51;;;;;;;23.00;4.63;;;;;4.60;102646.00;;;;10462136;28;20189;-80
2022/01/30 08:36:53;;;;;;;20.50;5.30;;;;;4.80;102642.00;;;;10488492;28;20687;-79
2022/01/30 08:41:55;;;;;;;19.50;5.10;;;;;5.00;102645.00;;;;10501081;28;20202;-79
2022/01/30 08:46:56;;;;;;;17.73;4.50;;;;;5.20;102655.00;;;;10491859;28;20194;-80
2022/01/30 08:51:59;;;;;;;20.80;4.43;;;;;5.40;102662.00;;;;10472631;28;20212;-80
2022/01/30 08:57:02;;;;;;;13.90;4.90;;;;;5.60;102659.00;;;;10487608;28;20550;-79
2022/01/30 09:02:08;;;;;;;21.60;4.93;;;;;5.60;102661.00;;;;10466558;28;20688;-79
2022/01/30 09:07:10;;;;;;;16.10;5.10;;;;;5.70;102675.00;;;;10466516;28;20225;-79
2022/01/30 09:12:13;;;;;;;14.87;3.70;;;;;5.70;102658.00;;;;10491175;28;20273;-79
2022/01/30 09:17:16;;;;;;;18.43;4.03;;;;;5.60;102657.00;;;;10506659;28;20242;-79
2022/01/30 09:22:23;;;;;;;27.83;4.47;;;;;6.10;102653.00;;;;10483084;28;20561;-79
2022/01/30 09:27:25;;;;;;;18.10;4.17;;;;;6.80;102661.00;;;;10440116;28;20202;-79
2022/01/30 09:32:27;;;;;;;20.67;4.43;;;;;7.40;102663.00;;;;10476363;28;20259;-80
2022/01/30 09:37:29;;;;;;;24.30;4.93;;;;;7.90;102668.00;;;;10513887;28;20209;-79
2022/01/30 09:42:43;;;;;;;15.97;3.63;;;;;8.30;102676.00;;;;10430602;28;20217;-79
2022/01/30 09:47:51;;;;;;;21.23;4.57;;;;;8.50;102685.00;;;;10446246;28;20648;-79
2022/01/30 09:53:08;;;;;;;19.77;4.97;;;;;8.90;102679.00;;;;10493109;28;20184;-79
2022/01/30 09:58:21;;;;;;;19.83;4.73;;;;;9.10;102694.00;;;;10482798;28;20289;-79
2022/01/30 10:03:29;;;;;;;19.60;4.90;;;;;9.30;102698.00;;;;10464221;28;20266;-79
2022/01/30 10:08:32;;;;;;;19.07;4.47;;;;;8.50;102703.00;;;;10471820;28;20209;-79
2022/01/30 10:13:33;;;;;;;21.20;4.97;;;;;8.90;102713.00;;;;10463420;28;20201;-79
2022/01/30 10:18:44;;;;;;;18.93;4.97;;;;;9.40;102709.00;;;;10473212;28;20194;-80
2022/01/30 10:23:47;;;;;;;21.63;4.67;;;;;9.70;102710.00;;;;10484093;28;20213;-79
2022/01/30 10:28:50;;;;;;;19.33;5.57;;;;;9.80;102705.00;;;;10450265;28;20198;-80
2022/01/30 10:33:52;;;;;;;13.73;4.50;;;;;9.80;102707.00;;;;10464365;28;20194;-80
2022/01/30 10:39:04;;;;;;;21.60;4.63;;;;;9.50;102711.00;;;;10446456;28;20262;-80
2022/01/30 10:44:08;;;;;;;22.40;4.70;;;;;9.80;102707.00;;;;10466837;28;20209;-80
2022/01/30 10:49:22;;;;;;;19.40;4.67;;;;;10.30;102693.00;;;;10439562;28;20186;-80
2022/01/30 10:54:29;;;;;;;16.70;4.77;;;;;10.70;102693.00;;;;10450516;28;20254;-80
2022/01/30 10:59:38;;;;;;;16.20;4.20;;;;;10.40;102688.00;;;;10444099;28;20197;-81
2022/01/30 11:04:46;;;;;;;17.60;3.67;;;;;10.20;102691.00;;;;10436189;28;20202;-81
2022/01/30 11:10:11;;;;;;;17.87;4.33;;;;;10.20;102689.00;;;;10495464;28;20202;-81
2022/01/30 11:15:38;;;;;;;20.33;4.57;;;;;11.00;102662.00;;;;10465191;28;20197;-81
2022/01/30 11:20:41;;;;;;;20.10;4.70;;;;;10.70;102659.00;;;;10457928;28;20241;-80
2022/01/30 11:25:44;;;;;;;15.77;2.97;;;;;10.50;102650.00;;;;10460496;28;20190;-80
2022/01/30 11:30:50;;;;;;;13.80;3.83;;;;;9.70;102661.00;;;;10452980;28;20239;-80
2022/01/30 11:35:52;;;;;;;17.77;4.00;;;;;9.30;102654.00;;;;10469429;28;20201;-80
2022/01/30 11:41:12;;;;;;;22.27;4.60;;;;;9.90;102648.00;;;;10430620;28;20567;-80
2022/01/30 11:46:16;;;;;;;15.80;3.83;;;;;10.20;102653.00;;;;10463322;28;20228;-81
2022/01/30 11:51:18;;;;;;;13.80;3.43;;;;;10.20;102653.00;;;;10473448;28;20189;-81
2022/01/30 11:56:33;;;;;;;14.13;4.10;;;;;10.80;102627.00;;;;10469341;28;20196;-81
2022/01/30 12:01:36;;;;;;;14.40;3.07;;;;;10.30;102642.00;;;;10470432;28;20206;-81
2022/01/30 12:06:44;;;;;;;20.30;3.40;;;;;10.10;102629.00;;;;10453053;28;20247;-82
2022/01/30 12:11:49;;;;;;;14.60;3.47;;;;;10.50;102621.00;;;;10464146;28;20224;-81
2022/01/30 12:16:56;;;;;;;20.67;4.97;;;;;10.10;102615.00;;;;10445319;28;20186;-81
2022/01/30 12:22:02;;;;;;;17.90;3.83;;;;;9.70;102615.00;;;;10468408;28;20197;-81
2022/01/30 12:27:07;;;;;;;12.93;3.43;;;;;9.50;102606.00;;;;10495723;28;20660;-80
2022/01/30 12:32:22;;;;;;;15.87;4.13;;;;;9.30;102602.00;;;;10475346;28;20268;-81
2022/01/30 12:37:45;;;;;;;16.80;4.47;;;;;9.00;102603.00;;;;10467120;28;20181;-81
2022/01/30 12:43:15;;;;;;;16.87;4.17;;;;;8.80;102595.00;;;;10451922;28;20206;-82
2022/01/30 12:49:32;;;;;;;14.30;4.10;;;;;8.50;102581.00;;;;10486683;28;20194;-80
2022/01/30 12:55:31;;;;;;;17.90;3.60;;;;;8.50;102557.00;;;;10502016;28;20197;-81
2022/01/30 13:01:38;;;;;;;14.43;3.50;;;;;8.60;102545.00;;;;10378185;28;20266;-81
2022/01/30 13:07:04;;;;;;;15.73;3.37;;;;;8.70;102541.00;;;;10370988;28;20200;-81
2022/01/30 13:12:32;;;;;;;13.10;3.60;;;;;8.80;102544.00;;;;10375353;28;20229;-80
2022/01/30 13:17:34;;;;;;;18.07;3.80;;;;;9.00;102535.00;;;;10412152;28;20290;-80
2022/01/30 13:22:40;;;;;;;24.27;4.33;;;;;8.60;102529.00;;;;10388300;28;20206;-80
2022/01/30 13:27:44;;;;;;;15.60;4.30;;;;;8.60;102527.00;;;;10395412;28;20290;-80
2022/01/30 13:32:46;;;;;;;13.37;3.10;;;;;8.60;102501.00;;;;10480274;28;20672;-80
2022/01/30 13:37:54;;;;;;;21.03;4.30;;;;;9.20;102497.00;;;;10470294;28;20193;-81
2022/01/30 13:43:04;;;;;;;14.93;3.03;;;;;8.60;102510.00;;;;10461139;28;20205;-80
2022/01/30 13:48:21;;;;;;;12.47;3.20;;;;;8.30;102504.00;;;;10442352;28;20198;-82
2022/01/30 13:53:25;;;;;;;16.93;4.03;;;;;8.10;102498.00;;;;10454267;28;20534;-80
2022/01/30 13:59:05;;;;;;;18.03;4.87;;;;;8.00;102488.00;;;;10462819;28;20204;-80
2022/01/30 14:20:30;;;;;;;8.87;3.90;;;;;7.90;102452.00;;;;10288644;28;20213;-80
2022/01/30 14:32:08;;;;;;;12.07;4.30;;;;;7.70;102425.00;;;;10255059;24;20245;-81
2022/01/30 14:37:44;;;;;;;18.57;4.10;;;;;7.80;102433.00;;;;9741741;30;20246;-82
2022/01/30 14:43:41;;;;;;;14.90;4.63;;;;;8.00;102424.00;;;;9739798;30;20261;-81
2022/01/30 14:48:44;;;;;;;13.27;3.83;;;;;8.20;102420.00;;;;9735521;30;20264;-81
2022/01/30 14:53:45;;;;;;;12.73;3.30;;;;;8.30;102422.00;;;;9746746;30;20214;-81
2022/01/30 14:58:49;;;;;;;14.30;3.33;;;;;8.30;102419.00;;;;9726814;30;20191;-81
2022/01/30 15:03:53;;;;;;;8.60;3.00;;;;;8.20;102416.00;;;;9722810;30;20222;-81
2022/01/30 15:09:13;;;;;;;14.53;3.60;;;;;8.10;102417.00;;;;9743536;30;20198;-81
2022/01/30 15:14:37;;;;;;;12.20;3.17;;;;;8.00;102416.00;;;;9738042;30;20203;-81
2022/01/30 15:19:39;;;;;;;10.43;3.47;;;;;7.80;102398.00;;;;9724823;30;20272;-81
2022/01/30 15:24:41;;;;;;;10.17;3.00;;;;;7.80;102389.00;;;;9714712;30;20206;-80
2022/01/30 15:29:46;;;;;;;12.60;3.17;;;;;7.70;102374.00;;;;9724810;30;20237;-81
2022/01/30 15:34:59;;;;;;;14.07;2.57;;;;;7.60;102367.00;;;;9719091;30;20226;-81
2022/01/30 15:40:14;;;;;;;15.53;2.80;;;;;7.50;102363.00;;;;9725672;30;20222;-82
2022/01/30 15:50:28;;;;;;;9.73;2.40;;;;;7.40;102326.00;;;;9756577;30;20211;-81
2022/01/30 15:55:30;;;;;;;19.60;3.03;;;;;7.30;102324.00;;;;9754222;30;20214;-81
2022/01/30 16:00:32;;;;;;;15.50;2.87;;;;;7.10;102322.00;;;;9737374;30;20226;-81
2022/01/30 16:05:34;;;;;;;14.27;3.43;;;;;6.90;102316.00;;;;9724574;30;20198;-81
2022/01/30 16:10:36;;;;;;;16.43;3.80;;;;;6.80;102297.00;;;;9736922;30;20207;-81
2022/01/30 16:15:38;;;;;;;9.63;3.57;;;;;6.80;102309.00;;;;9715032;30;20211;-81
2022/01/30 16:20:42;;;;;;;16.23;3.23;;;;;6.80;102291.00;;;;9700894;30;20219;-81
2022/01/30 16:25:45;;;;;;;15.43;5.87;;;;;6.70;102284.00;;;;9734596;30;20209;-81
2022/01/30 16:30:56;;;;;;;9.73;3.10;;;;;6.60;102262.00;;;;9745920;30;20284;-81
2022/01/30 16:36:18;;;;;;;11.80;2.97;;;;;6.40;102257.00;;;;9708401;30;20215;-81
2022/01/30 16:41:27;;;;;;;8.40;2.83;;;;;6.30;102257.00;;;;9722027;30;20225;-81
2022/01/30 16:47:02;;;;;;;12.63;2.53;;;;;6.20;102240.00;;;;9719629;30;20205;-81
2022/01/30 16:51:56;;;;;;;11.40;3.00;;;;;6.20;102229.00;;;;9758262;30;20679;-80
2022/01/30 16:56:58;;;;;;;12.47;2.87;;;;;6.10;102227.00;;;;9728510;30;20206;-80
2022/01/30 17:02:02;;;;;;;11.13;2.77;;;;;6.10;102222.00;;;;9712174;30;20218;-81
2022/01/30 17:07:07;;;;;;;9.90;2.10;;;;;6.20;102215.00;;;;9735816;30;20215;-81
2022/01/30 17:12:32;;;;;;;16.53;2.77;;;;;6.20;102215.00;;;;9713433;30;20286;-82
2022/01/30 17:17:36;;;;;;;16.73;4.20;;;;;6.10;102218.00;;;;9742618;30;20263;-81
2022/01/30 17:22:51;;;;;;;5.87;2.47;;;;;5.90;102210.00;;;;9735231;30;20225;-81
2022/01/30 17:27:53;;;;;;;11.83;3.20;;;;;5.80;102216.00;;;;9749330;30;20559;-82
2022/01/30 17:33:20;;;;;;;9.30;2.83;;;;;5.80;102202.00;;;;9735246;30;20264;-81
2022/01/30 17:38:25;;;;;;;8.27;2.93;;;;;5.80;102196.00;;;;9734452;30;20218;-80
2022/01/30 17:43:31;;;;;;;16.40;3.47;;;;;5.80;102192.00;;;;9754315;30;20577;-81
2022/01/30 17:48:49;;;;;;;8.20;3.10;;;;;5.70;102185.00;;;;9706649;30;20211;-81
2022/01/30 17:53:57;;;;;;;12.07;3.07;;;;;5.60;102179.00;;;;9711535;30;20206;-81
2022/01/30 17:59:08;;;;;;;9.83;2.90;;;;;5.40;102168.00;;;;9721156;30;20202;-81
2022/01/30 18:04:12;;;;;;;10.17;3.23;;;;;5.30;102157.00;;;;9747137;30;20243;-81
2022/01/30 18:09:14;;;;;;;15.60;3.83;;;;;5.10;102132.00;;;;9732696;30;20218;-81
2022/01/30 18:14:18;;;;;;;16.13;4.30;;;;;5.00;102128.00;;;;9752542;30;20654;-81
2022/01/30 18:19:22;;;;;;;14.37;4.10;;;;;4.90;102126.00;;;;9784058;30;20205;-81
2022/01/30 18:24:24;;;;;;;15.90;4.13;;;;;4.90;102127.00;;;;9735467;30;20594;-81
2022/01/30 18:29:27;;;;;;;10.43;3.90;;;;;4.80;102113.00;;;;9719823;30;20230;-81
2022/01/30 18:34:29;;;;;;;18.90;4.30;;;;;4.80;102112.00;;;;9733240;30;20233;-81
2022/01/30 18:39:42;;;;;;;15.50;4.80;;;;;4.70;102116.00;;;;9736535;30;20556;-81
2022/01/30 18:44:45;;;;;;;14.63;3.93;;;;;4.70;102126.00;;;;9755360;30;20252;-81
2022/01/30 18:49:48;;;;;;;15.63;5.17;;;;;4.60;102112.00;;;;9754800;30;20214;-81
2022/01/30 18:54:49;;;;;;;16.03;5.10;;;;;4.50;102102.00;;;;9724235;30;20284;-81
2022/01/30 18:59:51;;;;;;;14.97;5.90;;;;;4.40;102095.00;;;;9718449;30;20207;-81
2022/01/30 19:04:54;;;;;;;19.80;11.90;;;;;4.30;102093.00;;;;9690360;30;20211;-81
2022/01/30 19:09:55;;;;;;;22.10;10.10;;;;;4.30;102089.00;;;;9767812;30;20220;-81
2022/01/30 19:14:58;;;;;;;19.07;7.10;;;;;4.30;102054.00;;;;9725705;30;20186;-81
2022/01/30 19:20:00;;;;;;;15.10;6.57;;;;;4.40;102035.00;;;;9739358;30;20281;-81
2022/01/30 19:25:03;;;;;;;21.07;7.40;;;;;4.50;102032.00;;;;9739237;30;20213;-81
2022/01/30 19:30:06;;;;;;;21.67;7.77;;;;;4.60;102025.00;;;;9753349;30;20233;-81
2022/01/30 19:35:08;;;;;;;21.40;7.67;;;;;4.70;102004.00;;;;9738588;30;20229;-80
2022/01/30 19:40:10;;;;;;;22.73;7.63;;;;;4.80;101994.00;;;;9716442;30;20230;-81
2022/01/30 19:45:13;;;;;;;18.87;6.73;;;;;4.80;101985.00;;;;9702629;30;20292;-81
2022/01/30 19:50:15;;;;;;;18.33;7.27;;;;;4.90;101965.00;;;;9700999;30;20207;-81
2022/01/30 19:55:19;;;;;;;18.07;7.20;;;;;4.90;101966.00;;;;9702051;30;20209;-82
2022/01/30 20:00:21;;;;;;;23.30;7.70;;;;;5.00;101948.00;;;;9702304;30;20234;-81
2022/01/30 20:05:23;;;;;;;22.03;7.13;;;;;5.00;101924.00;;;;9702983;30;20288;-81
2022/01/30 20:10:25;;;;;;;18.20;7.50;;;;;5.00;101893.00;;;;9723661;30;20222;-81
2022/01/30 20:15:27;;;;;;;22.07;7.37;;;;;5.00;101884.00;;;;9751910;30;20214;-81
2022/01/30 20:20:29;;;;;;;14.50;6.77;;;;;5.00;101856.00;;;;9738380;30;20226;-81
2022/01/30 20:25:31;;;;;;;19.77;7.00;;;;;5.00;101840.00;;;;9739374;30;20297;-81
2022/01/30 20:30:33;;;;;;;16.63;6.43;;;;;5.00;101819.00;;;;9736036;30;20288;-82
2022/01/30 20:35:35;;;;;;;16.97;6.13;;;;;5.00;101798.00;;;;9750543;30;20622;-81
2022/01/30 20:40:37;;;;;;;17.47;6.20;;;;;5.00;101773.00;;;;9736443;30;20761;-81
2022/01/30 20:45:40;;;;;;;14.70;6.03;;;;;5.00;101758.00;;;;9736451;30;20252;-81
2022/01/30 20:50:42;;;;;;;11.87;5.47;;;;;5.00;101754.00;;;;9736410;30;20207;-81
2022/01/30 20:55:44;;;;;;;19.10;5.97;;;;;4.90;101767.00;;;;9736123;30;20260;-81
2022/01/30 21:00:46;;;;;;;12.97;5.70;;;;;5.00;101782.00;;;;9735853;30;20226;-80
2022/01/30 21:05:53;;;;;;;19.50;6.80;;;;;5.00;101773.00;;;;9749698;30;20266;-80
2022/01/30 21:10:58;;;;;;;16.77;6.50;;;;;5.00;101765.00;;;;9735192;30;20221;-80
2022/01/30 21:16:01;;;;;;;18.03;6.73;;;;;5.00;101745.00;;;;9749442;30;20256;-80
2022/01/30 21:21:04;;;;;;;21.43;6.17;;;;;5.10;101744.00;;;;9748951;30;20233;-80
2022/01/30 21:26:06;;;;;;;13.73;5.97;;;;;5.20;101721.00;;;;9734113;30;20668;-80
2022/01/30 21:31:08;;;;;;;19.40;6.27;;;;;5.30;101716.00;;;;9733893;30;20226;-79
2022/01/30 21:36:10;;;;;;;20.50;6.47;;;;;5.40;101716.00;;;;9734094;30;20217;-80
2022/01/30 21:41:12;;;;;;;12.53;4.60;;;;;5.40;101706.00;;;;9704945;30;20242;-80
2022/01/30 21:46:14;;;;;;;17.40;6.00;;;;;5.50;101667.00;;;;9732680;30;20206;-80
2022/01/30 21:51:16;;;;;;;16.47;6.53;;;;;5.50;101657.00;;;;9748143;30;20736;-80
2022/01/30 21:56:18;;;;;;;22.97;6.90;;;;;5.50;101654.00;;;;9747317;30;20213;-79
2022/01/30 22:01:21;;;;;;;15.87;6.50;;;;;5.40;101660.00;;;;9733615;30;20222;-79
2022/01/30 22:06:23;;;;;;;20.90;6.10;;;;;5.30;101658.00;;;;9719372;30;20264;-80
2022/01/30 22:11:26;;;;;;;22.00;6.80;;;;;5.30;101644.00;;;;9719158;30;20296;-79
2022/01/30 22:16:30;;;;;;;16.97;5.97;;;;;5.20;101636.00;;;;9746816;30;20861;-80
2022/01/30 22:21:31;;;;;;;16.50;6.20;;;;;5.20;101609.00;;;;9748137;30;20762;-81
2022/01/30 22:26:33;;;;;;;18.10;7.20;;;;;5.20;101603.00;;;;9747586;30;20217;-80
2022/01/30 22:31:36;;;;;;;19.00;7.50;;;;;5.20;101574.00;;;;9732328;30;20253;-80
2022/01/30 22:36:38;;;;;;;17.90;7.30;;;;;5.30;101564.00;;;;9746454;30;20702;-80
2022/01/30 22:41:40;;;;;;;16.10;6.57;;;;;5.30;101563.00;;;;9746972;30;20292;-81
2022/01/30 22:46:42;;;;;;;22.63;6.13;;;;;5.30;101523.00;;;;9718306;30;20206;-80
2022/01/30 22:51:44;;;;;;;15.53;5.80;;;;;5.30;101481.00;;;;9718364;30;20252;-80
2022/01/30 22:56:47;;;;;;;18.60;5.87;;;;;5.30;101456.00;;;;9718126;30;20688;-80
2022/01/30 23:01:53;;;;;;;23.13;5.87;;;;;5.20;101410.00;;;;9746386;30;20226;-80
2022/01/30 23:06:55;;;;;;;13.40;5.33;;;;;5.20;101387.00;;;;9731894;30;20206;-80
2022/01/30 23:11:57;;;;;;;14.33;4.27;;;;;5.10;101381.00;;;;9746399;30;20202;-80
2022/01/30 23:17:00;;;;;;;11.77;4.00;;;;;5.10;101348.00;;;;9760281;30;20664;-80
2022/01/30 23:22:02;;;;;;;17.13;4.67;;;;;5.00;101319.00;;;;9746031;30;20219;-80
2022/01/30 23:27:05;;;;;;;11.80;4.43;;;;;5.00;101291.00;;;;9736269;30;20675;-80
2022/01/30 23:32:07;;;;;;;18.73;4.57;;;;;5.00;101288.00;;;;9723871;30;20234;-81
2022/01/30 23:37:09;;;;;;;15.53;3.87;;;;;5.10;101275.00;;;;9723836;30;20622;-80
2022/01/30 23:42:15;;;;;;;11.17;4.47;;;;;5.20;101285.00;;;;9723890;30;20246;-80
2022/01/30 23:47:17;;;;;;;20.60;4.83;;;;;5.20;101265.00;;;;9723619;30;20210;-80
2022/01/30 23:52:19;;;;;;;11.80;3.90;;;;;5.30;101237.00;;;;9723532;30;20659;-80
2022/01/30 23:57:21;;;;;;;15.97;5.00;;;;;5.40;101226.00;;;;9723355;30;20237;-80
